Time;durP1;ratioP1;P1;durP2;ratioP2;P2;SDS_P1;SDS_P2;PMS_P1;PMS_P2;Temp;Humidity;BMP_temperature;BMP_pressure;BME280_temperature;BME280_humidity;BME280_pressure;Samples;Min_cycle;Max_cycle;Signal;HPM_P1;HPM_P2
2023/05/27 00:00:16;;;;;;;0.00;0.00;;;10.10;76.50;;;;;;5017736;28;20099;-67
2023/05/27 00:02:41;;;;;;;0.00;0.00;;;10.10;76.50;;;;;;5002190;28;20521;-67
2023/05/27 00:05:07;;;;;;;0.00;0.00;;;10.10;76.60;;;;;;5029256;28;20088;-67
2023/05/27 00:07:33;;;;;;;0.00;0.00;;;10.20;76.80;;;;;;5029005;28;20099;-67
2023/05/27 00:09:58;;;;;;;0.32;0.30;;;10.20;76.80;;;;;;5029367;28;20041;-66
2023/05/27 00:12:24;;;;;;;0.00;0.00;;;10.20;77.00;;;;;;5023271;28;20045;-67
2023/05/27 00:14:49;;;;;;;0.00;0.00;;;10.20;76.60;;;;;;5029254;28;20128;-67
2023/05/27 00:17:15;;;;;;;0.00;0.00;;;10.20;76.60;;;;;;5025887;28;20053;-67
2023/05/27 00:19:42;;;;;;;0.00;0.00;;;10.10;76.90;;;;;;5028975;28;20388;-67
2023/05/27 00:22:07;;;;;;;0.00;0.00;;;10.20;77.00;;;;;;5027384;28;20111;-67
2023/05/27 00:24:38;;;;;;;0.20;0.20;;;10.10;76.90;;;;;;5024549;28;20054;-67
2023/05/27 00:27:05;;;;;;;0.00;0.00;;;10.10;77.00;;;;;;5017479;28;20136;-67
2023/05/27 00:29:30;;;;;;;0.00;0.00;;;10.10;76.90;;;;;;5028995;28;20094;-67
2023/05/27 00:31:56;;;;;;;0.00;0.00;;;10.10;77.00;;;;;;5029151;28;20041;-67
2023/05/27 00:34:21;;;;;;;0.00;0.00;;;10.10;77.30;;;;;;5027731;28;20391;-67
2023/05/27 00:36:47;;;;;;;0.00;0.00;;;10.10;77.50;;;;;;5028715;28;20498;-67
2023/05/27 00:39:13;;;;;;;0.00;0.00;;;10.10;77.20;;;;;;5028445;28;20511;-67
2023/05/27 00:41:45;;;;;;;0.17;0.17;;;10.10;77.30;;;;;;5028041;28;20064;-68
2023/05/27 00:44:10;;;;;;;0.00;0.00;;;10.00;77.20;;;;;;5027716;28;20053;-67
2023/05/27 00:46:36;;;;;;;0.00;0.00;;;10.00;77.10;;;;;;5028924;28;20884;-67
2023/05/27 00:49:01;;;;;;;0.00;0.00;;;10.00;77.20;;;;;;5028727;28;20073;-67
2023/05/27 00:51:27;;;;;;;0.00;0.00;;;10.00;77.20;;;;;;5027593;28;20129;-67
2023/05/27 00:53:52;;;;;;;0.00;0.00;;;10.00;77.50;;;;;;5010366;28;20042;-67
2023/05/27 00:56:18;;;;;;;0.00;0.00;;;10.00;77.50;;;;;;5027281;28;20053;-67
2023/05/27 00:58:43;;;;;;;0.00;0.00;;;9.90;77.40;;;;;;5007495;28;20519;-68
2023/05/27 01:01:09;;;;;;;0.05;0.05;;;9.90;77.50;;;;;;5029079;28;20096;-67
2023/05/27 01:03:35;;;;;;;0.00;0.00;;;9.90;77.60;;;;;;5012873;28;20038;-68
2023/05/27 01:06:10;;;;;;;0.00;0.00;;;9.90;77.50;;;;;;5012534;28;20410;-67
2023/05/27 01:09:18;;;;;;;0.40;0.40;;;9.90;77.80;;;;;;5032719;28;20094;-67
2023/05/27 01:12:07;;;;;;;0.00;0.00;;;9.90;77.70;;;;;;5010115;28;20046;-67
2023/05/27 01:14:35;;;;;;;0.00;0.00;;;9.80;77.50;;;;;;4993900;28;20514;-67
2023/05/27 01:17:05;;;;;;;0.00;0.00;;;9.80;77.60;;;;;;5024355;28;20518;-67
2023/05/27 01:19:34;;;;;;;0.00;0.00;;;9.80;77.60;;;;;;5032466;28;20045;-67
2023/05/27 01:22:01;;;;;;;2.10;1.38;;;9.70;77.50;;;;;;5027159;28;20085;-67
2023/05/27 01:24:27;;;;;;;0.00;0.00;;;9.70;77.40;;;;;;5032444;28;20284;-67
2023/05/27 01:26:53;;;;;;;0.00;0.00;;;9.70;77.50;;;;;;5028122;28;20060;-67
2023/05/27 01:29:19;;;;;;;0.00;0.00;;;9.60;77.70;;;;;;5030824;28;20045;-67
2023/05/27 01:32:01;;;;;;;0.00;0.00;;;9.60;77.90;;;;;;5032425;28;20045;-67
2023/05/27 01:34:46;;;;;;;0.00;0.00;;;9.60;78.00;;;;;;5012839;28;20417;-67
2023/05/27 01:37:16;;;;;;;0.00;0.00;;;9.60;77.90;;;;;;5018946;28;20483;-67
2023/05/27 01:39:42;;;;;;;0.00;0.00;;;9.60;78.20;;;;;;5031866;28;20091;-67
2023/05/27 01:42:08;;;;;;;0.00;0.00;;;9.60;78.20;;;;;;5031846;28;20092;-67
2023/05/27 01:44:35;;;;;;;0.00;0.00;;;9.60;78.10;;;;;;5030971;28;20046;-67
2023/05/27 01:47:01;;;;;;;0.00;0.00;;;9.40;78.10;;;;;;5030671;28;20091;-67
2023/05/27 01:49:29;;;;;;;0.00;0.00;;;9.50;78.30;;;;;;5031446;28;20033;-67
2023/05/27 01:51:55;;;;;;;0.10;0.10;;;9.50;78.70;;;;;;5023929;28;20041;-67
2023/05/27 01:54:21;;;;;;;0.00;0.00;;;9.50;78.80;;;;;;5029689;28;20048;-67
2023/05/27 01:56:46;;;;;;;0.00;0.00;;;9.50;78.70;;;;;;5017444;28;20100;-67
2023/05/27 01:59:12;;;;;;;0.00;0.00;;;9.40;78.70;;;;;;5020554;28;20356;-67
2023/05/27 02:01:38;;;;;;;0.00;0.00;;;9.50;79.00;;;;;;5017530;28;20045;-67
2023/05/27 02:04:03;;;;;;;0.00;0.00;;;9.50;79.10;;;;;;5030847;28;20537;-67
2023/05/27 02:06:29;;;;;;;0.00;0.00;;;9.50;79.00;;;;;;5031962;28;20073;-68
2023/05/27 02:08:55;;;;;;;0.00;0.00;;;9.40;78.50;;;;;;5031484;28;20042;-67
2023/05/27 02:11:20;;;;;;;0.10;0.10;;;9.40;78.40;;;;;;5031359;28;20095;-67
2023/05/27 02:13:46;;;;;;;0.00;0.00;;;9.40;78.80;;;;;;5031365;28;20450;-68
2023/05/27 02:16:12;;;;;;;0.00;0.00;;;9.40;78.60;;;;;;5031807;28;20052;-67
2023/05/27 02:18:38;;;;;;;0.00;0.00;;;9.30;78.70;;;;;;5030578;28;20095;-67
2023/05/27 02:21:06;;;;;;;0.00;0.00;;;9.30;79.00;;;;;;5031401;28;20127;-67
2023/05/27 02:23:36;;;;;;;0.00;0.00;;;9.30;79.10;;;;;;5030503;28;20098;-67
2023/05/27 02:26:02;;;;;;;0.00;0.00;;;9.30;79.00;;;;;;5030458;28;20556;-67
2023/05/27 02:28:27;;;;;;;0.00;0.00;;;9.40;79.40;;;;;;5018572;28;20037;-67
2023/05/27 02:30:53;;;;;;;0.00;0.00;;;9.30;79.50;;;;;;5018375;28;20042;-67
2023/05/27 02:33:18;;;;;;;0.00;0.00;;;9.40;79.80;;;;;;5025247;28;20052;-67
2023/05/27 02:35:45;;;;;;;0.00;0.00;;;9.40;80.00;;;;;;5020591;28;20053;-67
2023/05/27 02:38:10;;;;;;;0.00;0.00;;;9.40;79.60;;;;;;5011458;28;20046;-67
2023/05/27 02:40:36;;;;;;;0.00;0.00;;;9.40;79.50;;;;;;5031021;28;20164;-67
2023/05/27 02:43:02;;;;;;;0.00;0.00;;;9.40;79.60;;;;;;5030475;28;20041;-67
2023/05/27 02:45:27;;;;;;;0.00;0.00;;;9.50;79.50;;;;;;5029556;28;20049;-68
2023/05/27 02:47:55;;;;;;;0.00;0.00;;;9.40;79.40;;;;;;5030309;28;20042;-67
2023/05/27 02:50:20;;;;;;;0.03;0.03;;;9.50;79.70;;;;;;5009157;28;20120;-68
2023/05/27 02:52:46;;;;;;;0.00;0.00;;;9.50;79.60;;;;;;5019659;28;20129;-68
2023/05/27 02:55:11;;;;;;;0.00;0.00;;;9.50;79.60;;;;;;5030702;28;20556;-67
2023/05/27 02:57:37;;;;;;;0.00;0.00;;;9.50;79.60;;;;;;5030535;28;20044;-68
2023/05/27 03:00:04;;;;;;;0.00;0.00;;;9.50;79.50;;;;;;5030607;28;20579;-67
2023/05/27 03:02:30;;;;;;;0.00;0.00;;;9.50;79.60;;;;;;5030756;28;20046;-68
2023/05/27 03:04:56;;;;;;;0.00;0.00;;;9.50;79.80;;;;;;5029974;28;20479;-68
2023/05/27 03:07:22;;;;;;;0.00;0.00;;;9.50;80.00;;;;;;5030654;28;20068;-67
2023/05/27 03:09:47;;;;;;;0.00;0.00;;;9.60;80.20;;;;;;5030349;28;20037;-68
2023/05/27 03:12:13;;;;;;;0.00;0.00;;;9.60;80.30;;;;;;5030896;28;20525;-67
2023/05/27 03:14:39;;;;;;;0.00;0.00;;;9.60;80.20;;;;;;5030208;28;20517;-67
2023/05/27 03:17:04;;;;;;;0.00;0.00;;;9.50;80.40;;;;;;5030254;28;20056;-67
2023/05/27 03:19:30;;;;;;;0.00;0.00;;;9.60;80.10;;;;;;5029930;28;20099;-68
2023/05/27 03:21:56;;;;;;;0.00;0.00;;;9.60;80.10;;;;;;5031583;28;20523;-67
2023/05/27 03:24:22;;;;;;;0.00;0.00;;;9.50;79.90;;;;;;5030157;28;20045;-67
2023/05/27 03:26:48;;;;;;;0.00;0.00;;;9.50;80.10;;;;;;5012750;28;20060;-68
2023/05/27 03:29:15;;;;;;;0.00;0.00;;;9.50;80.30;;;;;;5028833;28;20033;-68
2023/05/27 03:31:41;;;;;;;0.00;0.00;;;9.60;80.40;;;;;;4992528;28;20133;-67
2023/05/27 03:34:06;;;;;;;0.00;0.00;;;9.60;80.30;;;;;;5005329;28;20183;-67
2023/05/27 03:36:34;;;;;;;0.05;0.05;;;9.60;80.20;;;;;;5029495;28;20091;-67
2023/05/27 03:39:00;;;;;;;0.00;0.00;;;9.50;80.00;;;;;;5028332;28;20056;-67
2023/05/27 03:41:26;;;;;;;2.72;1.00;;;9.50;80.20;;;;;;5029489;28;20414;-68
2023/05/27 03:43:51;;;;;;;0.10;0.10;;;9.50;80.20;;;;;;5029051;28;20037;-68
2023/05/27 03:46:17;;;;;;;0.00;0.00;;;9.50;80.40;;;;;;5029555;28;20049;-68
2023/05/27 03:48:42;;;;;;;0.00;0.00;;;9.60;80.50;;;;;;5028793;28;20045;-68
2023/05/27 03:51:16;;;;;;;0.00;0.00;;;9.60;80.40;;;;;;5085720;27;20918;-69
2023/05/27 03:53:41;;;;;;;0.00;0.00;;;9.60;80.70;;;;;;5085888;28;20101;-69
2023/05/27 03:56:07;;;;;;;0.00;0.00;;;9.60;80.60;;;;;;5085440;28;20421;-69
2023/05/27 03:58:32;;;;;;;0.00;0.00;;;9.60;80.60;;;;;;5086441;28;20519;-69
2023/05/27 04:00:58;;;;;;;0.00;0.00;;;9.60;80.60;;;;;;5086211;28;20452;-69
2023/05/27 04:03:23;;;;;;;0.00;0.00;;;9.60;80.80;;;;;;5086039;28;20110;-69
2023/05/27 04:05:49;;;;;;;0.00;0.00;;;9.70;80.90;;;;;;5086135;28;20043;-69
2023/05/27 04:08:14;;;;;;;0.00;0.00;;;9.70;80.90;;;;;;5086964;28;20072;-69
2023/05/27 04:10:40;;;;;;;0.00;0.00;;;9.70;80.70;;;;;;5086373;28;20044;-68
2023/05/27 04:13:05;;;;;;;0.00;0.00;;;9.70;80.50;;;;;;5086360;28;20041;-69
2023/05/27 04:15:32;;;;;;;0.00;0.00;;;9.80;80.50;;;;;;5085542;28;20044;-69
2023/05/27 04:17:57;;;;;;;0.00;0.00;;;9.80;80.70;;;;;;5085623;28;20400;-69
2023/05/27 04:20:24;;;;;;;0.00;0.00;;;9.80;80.70;;;;;;5086060;28;20103;-69
2023/05/27 04:22:50;;;;;;;0.00;0.00;;;9.90;80.80;;;;;;5086000;28;20093;-69
2023/05/27 04:25:15;;;;;;;0.08;0.08;;;10.00;81.00;;;;;;5085792;28;20052;-69
2023/05/27 04:27:41;;;;;;;0.00;0.00;;;10.00;81.10;;;;;;5085641;28;20352;-69
2023/05/27 04:30:07;;;;;;;0.00;0.00;;;10.00;80.90;;;;;;5084430;28;20412;-69
2023/05/27 04:32:37;;;;;;;0.00;0.00;;;10.00;80.90;;;;;;5085056;28;20075;-69
2023/05/27 04:35:10;;;;;;;0.00;0.00;;;10.00;80.90;;;;;;5084310;28;20075;-69
2023/05/27 04:37:37;;;;;;;0.00;0.00;;;10.00;80.80;;;;;;5085340;28;20409;-69
2023/05/27 04:40:06;;;;;;;0.05;0.05;;;10.10;81.10;;;;;;5085618;28;20051;-69
2023/05/27 04:42:32;;;;;;;0.00;0.00;;;10.10;81.40;;;;;;5070012;28;20485;-69
2023/05/27 04:44:59;;;;;;;0.00;0.00;;;10.20;81.60;;;;;;5064912;28;20090;-69
2023/05/27 04:47:25;;;;;;;0.00;0.00;;;10.20;81.20;;;;;;5078949;28;20052;-69
2023/05/27 04:49:51;;;;;;;0.00;0.00;;;10.30;81.00;;;;;;5080199;28;20048;-69
2023/05/27 04:52:21;;;;;;;0.00;0.00;;;10.30;81.00;;;;;;5083698;28;20052;-69
2023/05/27 04:54:47;;;;;;;0.00;0.00;;;10.40;81.00;;;;;;5085257;28;20489;-69
2023/05/27 04:57:13;;;;;;;0.00;0.00;;;10.40;80.70;;;;;;5057279;28;20098;-69
2023/05/27 05:02:25;;;;;;;0.00;0.00;;;10.50;80.70;;;;;;5054593;28;20057;-68
2023/05/27 05:04:50;;;;;;;0.00;0.00;;;10.50;80.80;;;;;;5051900;28;20053;-69
2023/05/27 05:07:17;;;;;;;0.00;0.00;;;10.50;80.80;;;;;;5052406;28;20118;-69
2023/05/27 05:09:42;;;;;;;0.00;0.00;;;10.60;80.50;;;;;;5051563;28;20037;-69
2023/05/27 05:12:08;;;;;;;0.00;0.00;;;10.60;80.10;;;;;;5057924;28;20068;-69
2023/05/27 05:14:33;;;;;;;0.00;0.00;;;10.60;80.40;;;;;;5071609;28;20047;-69
2023/05/27 05:16:59;;;;;;;0.00;0.00;;;10.60;80.50;;;;;;5059430;28;20037;-68
2023/05/27 05:19:24;;;;;;;0.00;0.00;;;10.70;80.30;;;;;;5069355;28;20466;-68
2023/05/27 05:21:50;;;;;;;0.00;0.00;;;10.70;80.00;;;;;;5067309;28;20520;-68
2023/05/27 05:24:16;;;;;;;0.00;0.00;;;10.70;80.10;;;;;;5052580;28;20041;-68
2023/05/27 05:26:41;;;;;;;0.00;0.00;;;10.80;80.60;;;;;;5054569;28;20127;-69
2023/05/27 05:29:07;;;;;;;0.00;0.00;;;10.80;80.90;;;;;;5049398;28;20041;-68
2023/05/27 05:31:32;;;;;;;0.00;0.00;;;10.90;80.60;;;;;;5056903;28;20102;-69
2023/05/27 05:33:58;;;;;;;0.00;0.00;;;11.00;80.60;;;;;;5068220;28;20489;-69
2023/05/27 05:36:25;;;;;;;0.00;0.00;;;11.00;80.80;;;;;;5069910;28;20053;-68
2023/05/27 05:38:50;;;;;;;0.00;0.00;;;11.00;80.60;;;;;;5066408;28;20037;-68
2023/05/27 05:41:16;;;;;;;0.00;0.00;;;11.10;80.20;;;;;;5064108;28;20043;-68
2023/05/27 05:43:42;;;;;;;0.03;0.03;;;11.20;80.10;;;;;;5057766;28;20044;-68
2023/05/27 05:46:07;;;;;;;0.00;0.00;;;11.10;80.00;;;;;;5060929;28;20087;-67
2023/05/27 05:48:33;;;;;;;0.00;0.00;;;11.20;79.70;;;;;;5053135;28;20041;-68
2023/05/27 05:51:00;;;;;;;0.00;0.00;;;11.20;79.50;;;;;;5062253;28;20147;-68
2023/05/27 05:53:26;;;;;;;0.00;0.00;;;11.20;79.40;;;;;;5060319;28;20056;-69
2023/05/27 05:55:51;;;;;;;0.00;0.00;;;11.30;79.00;;;;;;5055406;28;20107;-68
2023/05/27 05:58:17;;;;;;;0.00;0.00;;;11.30;78.90;;;;;;5059253;28;20136;-71
2023/05/27 06:00:43;;;;;;;0.00;0.00;;;11.30;78.80;;;;;;5069152;28;20402;-69
2023/05/27 06:03:09;;;;;;;0.00;0.00;;;11.30;78.60;;;;;;5069908;28;20048;-68
2023/05/27 06:05:34;;;;;;;0.08;0.08;;;11.40;78.50;;;;;;5070525;28;20344;-68
2023/05/27 06:08:00;;;;;;;0.00;0.00;;;11.40;78.60;;;;;;5062203;28;20044;-68
2023/05/27 06:10:25;;;;;;;0.00;0.00;;;11.50;78.60;;;;;;5057736;28;20505;-69
2023/05/27 06:12:51;;;;;;;0.10;0.10;;;11.40;78.00;;;;;;5060304;28;20040;-66
2023/05/27 06:15:16;;;;;;;0.00;0.00;;;11.50;77.90;;;;;;5058482;28;20080;-65
2023/05/27 06:17:43;;;;;;;0.00;0.00;;;11.50;77.90;;;;;;5058852;28;20037;-65
2023/05/27 06:20:10;;;;;;;0.03;0.03;;;11.50;77.90;;;;;;5067512;28;20098;-67
2023/05/27 06:22:35;;;;;;;0.00;0.00;;;11.60;77.80;;;;;;5070208;28;20076;-68
2023/05/27 06:25:01;;;;;;;0.03;0.03;;;11.60;78.00;;;;;;5057701;28;20099;-68
2023/05/27 06:27:26;;;;;;;0.00;0.00;;;11.70;78.00;;;;;;5056685;28;20040;-68
2023/05/27 06:29:52;;;;;;;0.00;0.00;;;11.70;78.00;;;;;;5060508;28;20136;-67
2023/05/27 06:32:17;;;;;;;0.00;0.00;;;11.80;77.90;;;;;;5057586;28;20063;-67
2023/05/27 06:34:43;;;;;;;0.00;0.00;;;11.90;77.70;;;;;;5057549;28;20033;-66
2023/05/27 06:37:08;;;;;;;0.00;0.00;;;11.90;77.70;;;;;;5062189;28;20106;-67
2023/05/27 06:39:34;;;;;;;0.00;0.00;;;12.00;77.70;;;;;;5053226;28;20082;-68
2023/05/27 06:42:00;;;;;;;0.00;0.00;;;12.00;77.80;;;;;;5087980;28;20052;-68
2023/05/27 06:44:25;;;;;;;0.00;0.00;;;12.10;77.40;;;;;;5065011;28;20579;-68
2023/05/27 06:46:51;;;;;;;0.00;0.00;;;12.20;77.30;;;;;;5048757;28;20501;-67
2023/05/27 06:49:16;;;;;;;0.05;0.05;;;12.30;77.20;;;;;;5063165;28;20489;-67
2023/05/27 06:51:43;;;;;;;0.00;0.00;;;12.30;76.80;;;;;;5063602;28;20477;-67
2023/05/27 06:54:08;;;;;;;0.00;0.00;;;12.30;76.60;;;;;;5050751;28;20049;-67
2023/05/27 06:56:34;;;;;;;0.00;0.00;;;12.30;76.50;;;;;;5054964;28;20075;-67
2023/05/27 06:58:59;;;;;;;0.00;0.00;;;12.40;76.50;;;;;;5069315;28;20032;-67
2023/05/27 07:01:25;;;;;;;0.00;0.00;;;12.50;76.30;;;;;;5069908;28;20281;-67
2023/05/27 07:03:51;;;;;;;0.00;0.00;;;12.50;76.20;;;;;;5060626;28;20481;-67
2023/05/27 07:06:16;;;;;;;0.00;0.00;;;12.60;76.30;;;;;;5051677;28;20044;-67
2023/05/27 07:08:42;;;;;;;0.00;0.00;;;12.60;76.10;;;;;;5063146;28;20086;-67
2023/05/27 07:11:07;;;;;;;0.00;0.00;;;12.70;76.00;;;;;;5063334;28;20417;-67
2023/05/27 07:13:33;;;;;;;0.00;0.00;;;12.70;75.50;;;;;;5069621;28;20458;-67
2023/05/27 07:15:58;;;;;;;0.00;0.00;;;12.70;75.50;;;;;;5050465;28;20060;-67
2023/05/27 07:18:24;;;;;;;0.00;0.00;;;12.60;75.20;;;;;;5057913;28;20045;-67
2023/05/27 07:20:50;;;;;;;0.00;0.00;;;12.70;75.50;;;;;;5048721;28;20486;-67
2023/05/27 07:23:16;;;;;;;0.00;0.00;;;12.70;75.00;;;;;;5052929;28;20048;-67
2023/05/27 07:25:41;;;;;;;0.00;0.00;;;12.70;75.30;;;;;;5066015;28;20072;-67
2023/05/27 07:28:07;;;;;;;0.00;0.00;;;12.80;75.40;;;;;;5068488;28;20067;-67
2023/05/27 07:30:32;;;;;;;0.10;0.10;;;12.80;75.40;;;;;;5066626;28;20514;-67
2023/05/27 07:32:58;;;;;;;0.00;0.00;;;12.80;75.20;;;;;;5066211;28;20047;-67
2023/05/27 07:35:23;;;;;;;0.25;0.25;;;12.90;75.30;;;;;;5049393;28;20093;-67
2023/05/27 07:37:49;;;;;;;0.00;0.00;;;12.90;75.10;;;;;;5056661;28;20045;-66
2023/05/27 07:40:15;;;;;;;0.43;0.43;;;12.90;74.70;;;;;;5062816;28;20089;-66
2023/05/27 07:42:40;;;;;;;0.00;0.00;;;12.80;74.70;;;;;;5055376;28;20047;-67
2023/05/27 07:45:07;;;;;;;0.32;0.32;;;12.90;75.00;;;;;;5068296;28;20072;-67
2023/05/27 07:47:32;;;;;;;0.00;0.00;;;12.80;74.90;;;;;;5037807;28;20513;-67
2023/05/27 07:49:58;;;;;;;0.00;0.00;;;13.00;75.10;;;;;;5056998;28;20061;-66
2023/05/27 07:52:24;;;;;;;0.00;0.00;;;13.10;75.30;;;;;;5061071;28;20391;-66
2023/05/27 07:54:49;;;;;;;0.00;0.00;;;13.10;75.40;;;;;;5059975;28;20123;-66
2023/05/27 07:57:16;;;;;;;0.00;0.00;;;13.20;75.30;;;;;;5059226;28;20061;-66
2023/05/27 07:59:42;;;;;;;0.25;0.25;;;13.30;75.00;;;;;;5051828;28;20053;-66
2023/05/27 08:02:08;;;;;;;0.00;0.00;;;13.30;74.50;;;;;;5067247;28;20128;-66
2023/05/27 08:04:34;;;;;;;0.00;0.00;;;13.20;74.50;;;;;;5067591;28;20449;-66
2023/05/27 08:07:00;;;;;;;0.00;0.00;;;13.30;74.70;;;;;;5067774;28;20129;-66
2023/05/27 08:09:25;;;;;;;0.03;0.03;;;13.30;74.80;;;;;;5049322;28;20167;-66
2023/05/27 08:11:51;;;;;;;0.00;0.00;;;13.40;74.40;;;;;;5066909;28;20044;-66
2023/05/27 08:14:16;;;;;;;0.00;0.00;;;13.40;74.30;;;;;;5057475;28;20513;-66
2023/05/27 08:16:42;;;;;;;1.45;0.45;;;13.40;74.40;;;;;;5068427;28;20048;-66
2023/05/27 08:19:08;;;;;;;0.00;0.00;;;13.50;74.40;;;;;;5053399;28;20045;-66
2023/05/27 08:21:33;;;;;;;0.00;0.00;;;13.60;74.50;;;;;;5048971;28;20037;-66
2023/05/27 08:24:00;;;;;;;0.00;0.00;;;13.70;74.40;;;;;;5048044;28;20045;-66
2023/05/27 08:26:26;;;;;;;0.32;0.30;;;13.70;73.70;;;;;;5054971;28;20052;-66
2023/05/27 08:28:51;;;;;;;0.00;0.00;;;13.90;74.00;;;;;;5052603;28;20049;-67
2023/05/27 08:31:17;;;;;;;0.00;0.00;;;14.00;74.10;;;;;;5050844;28;20033;-67
2023/05/27 08:33:43;;;;;;;0.00;0.00;;;14.10;73.20;;;;;;5053483;28;20053;-66
2023/05/27 08:36:08;;;;;;;0.00;0.00;;;14.10;73.10;;;;;;5048811;28;20037;-66
2023/05/27 08:38:34;;;;;;;0.00;0.00;;;14.10;73.20;;;;;;5051725;28;20398;-67
2023/05/27 08:40:59;;;;;;;0.00;0.00;;;14.20;73.50;;;;;;5052169;28;20180;-66
2023/05/27 08:43:26;;;;;;;0.03;0.03;;;14.30;73.80;;;;;;5055473;28;20044;-67
2023/05/27 08:45:51;;;;;;;0.35;0.35;;;14.50;73.30;;;;;;5064746;28;20057;-67
2023/05/27 08:48:17;;;;;;;0.00;0.00;;;14.50;73.30;;;;;;5070690;28;20554;-68
2023/05/27 08:50:42;;;;;;;0.00;0.00;;;14.50;72.70;;;;;;5056894;28;20532;-68
2023/05/27 08:53:09;;;;;;;0.00;0.00;;;14.50;72.20;;;;;;5065238;28;20272;-67
2023/05/27 08:55:39;;;;;;;0.00;0.00;;;14.60;72.40;;;;;;5060088;28;20049;-69
2023/05/27 08:58:06;;;;;;;0.03;0.03;;;14.70;72.80;;;;;;5063699;28;20056;-67
2023/05/27 09:00:32;;;;;;;0.00;0.00;;;14.80;72.30;;;;;;5052447;28;20091;-68
2023/05/27 09:02:59;;;;;;;0.00;0.00;;;14.80;70.90;;;;;;5055543;28;20036;-68
2023/05/27 09:05:25;;;;;;;0.20;0.20;;;14.80;71.80;;;;;;5059257;28;20049;-67
2023/05/27 09:07:51;;;;;;;3.63;1.15;;;14.80;71.90;;;;;;5065202;28;20044;-68
2023/05/27 09:10:17;;;;;;;0.00;0.00;;;14.90;71.60;;;;;;5061696;28;20049;-67
2023/05/27 09:12:45;;;;;;;0.00;0.00;;;14.90;71.50;;;;;;5063696;28;20053;-67
2023/05/27 09:15:11;;;;;;;2.17;0.63;;;14.90;71.30;;;;;;5060987;28;20045;-68
2023/05/27 09:17:44;;;;;;;0.00;0.00;;;14.90;71.80;;;;;;5063376;28;20056;-67
2023/05/27 09:20:11;;;;;;;0.00;0.00;;;14.90;70.80;;;;;;5063976;28;20083;-67
2023/05/27 09:22:39;;;;;;;0.00;0.00;;;14.80;70.40;;;;;;5052300;28;20052;-67
2023/05/27 09:25:05;;;;;;;1.25;0.95;;;14.90;71.00;;;;;;5056674;28;20048;-67
2023/05/27 09:27:32;;;;;;;0.00;0.00;;;14.80;70.50;;;;;;5070341;28;20316;-68
2023/05/27 09:30:06;;;;;;;0.10;0.10;;;14.80;70.50;;;;;;5071027;28;20044;-67
2023/05/27 09:32:33;;;;;;;0.00;0.00;;;14.80;70.90;;;;;;5070999;28;20060;-67
2023/05/27 09:35:04;;;;;;;0.00;0.00;;;14.90;71.20;;;;;;5054354;28;20438;-67
2023/05/27 09:37:32;;;;;;;0.00;0.00;;;15.00;70.50;;;;;;5050136;28;20183;-66
2023/05/27 09:40:15;;;;;;;0.00;0.00;;;15.10;70.40;;;;;;5050335;28;20100;-67
2023/05/27 09:42:41;;;;;;;0.85;0.85;;;15.20;70.70;;;;;;5050766;28;20045;-67
2023/05/27 09:45:12;;;;;;;0.03;0.03;;;15.20;70.30;;;;;;5065929;28;20055;-67
2023/05/27 09:47:48;;;;;;;0.00;0.00;;;15.20;70.20;;;;;;5069702;28;20153;-67
2023/05/27 09:50:14;;;;;;;0.00;0.00;;;15.20;70.60;;;;;;5068558;28;20382;-67
2023/05/27 09:52:43;;;;;;;0.00;0.00;;;15.30;70.60;;;;;;5069998;28;20101;-67
2023/05/27 09:55:11;;;;;;;0.00;0.00;;;15.30;69.30;;;;;;5056675;28;20041;-67
2023/05/27 09:57:36;;;;;;;0.00;0.00;;;15.30;69.30;;;;;;5057861;28;20060;-67
2023/05/27 10:00:11;;;;;;;0.00;0.00;;;15.40;69.60;;;;;;5067191;28;20041;-67
2023/05/27 10:02:37;;;;;;;0.00;0.00;;;15.60;70.10;;;;;;5063091;28;20048;-67
2023/05/27 10:05:07;;;;;;;0.00;0.00;;;15.60;70.00;;;;;;5075038;28;20096;-67
2023/05/27 10:07:38;;;;;;;0.00;0.00;;;15.70;69.40;;;;;;5063202;28;20136;-69
2023/05/27 10:10:06;;;;;;;0.00;0.00;;;15.70;68.70;;;;;;5058030;28;20045;-68
2023/05/27 10:12:32;;;;;;;0.00;0.00;;;15.70;68.80;;;;;;5066089;28;20516;-67
2023/05/27 10:14:58;;;;;;;0.03;0.03;;;15.80;68.00;;;;;;5052179;28;20493;-67
2023/05/27 10:17:24;;;;;;;0.00;0.00;;;15.80;67.30;;;;;;5054139;28;20101;-67
2023/05/27 10:19:55;;;;;;;0.00;0.00;;;15.90;68.30;;;;;;5062028;28;20049;-68
2023/05/27 10:22:22;;;;;;;0.00;0.00;;;16.00;68.80;;;;;;5063112;28;20045;-68
2023/05/27 10:24:48;;;;;;;0.15;0.15;;;16.00;68.30;;;;;;5056169;28;20068;-67
2023/05/27 10:27:14;;;;;;;0.50;0.50;;;16.00;68.70;;;;;;5061154;28;20501;-68
2023/05/27 10:29:39;;;;;;;0.20;0.20;;;16.00;67.00;;;;;;5060887;28;20051;-67
2023/05/27 10:32:05;;;;;;;0.00;0.00;;;16.00;67.30;;;;;;5048921;28;20106;-67
2023/05/27 10:34:41;;;;;;;0.00;0.00;;;16.00;68.00;;;;;;5049185;28;20095;-67
2023/05/27 10:37:07;;;;;;;0.25;0.20;;;16.10;67.40;;;;;;5060547;28;20504;-67
2023/05/27 10:39:33;;;;;;;0.10;0.10;;;16.10;67.30;;;;;;5048904;28;20052;-67
2023/05/27 10:41:58;;;;;;;0.10;0.10;;;16.20;67.20;;;;;;5057354;28;20152;-67
2023/05/27 10:44:32;;;;;;;0.10;0.10;;;16.30;66.60;;;;;;5063131;28;20071;-67
2023/05/27 10:47:04;;;;;;;0.00;0.00;;;16.40;67.50;;;;;;5052406;28;20041;-67
2023/05/27 10:49:35;;;;;;;0.00;0.00;;;16.50;67.50;;;;;;5053903;28;20063;-67
2023/05/27 10:52:17;;;;;;;0.00;0.00;;;16.60;67.30;;;;;;5066854;28;20523;-68
2023/05/27 10:54:45;;;;;;;0.25;0.25;;;16.60;66.50;;;;;;5061335;28;20151;-67
2023/05/27 10:57:11;;;;;;;0.20;0.20;;;16.70;66.00;;;;;;5067661;28;20513;-67
2023/05/27 10:59:51;;;;;;;0.00;0.00;;;16.70;65.80;;;;;;5058551;28;20041;-68
2023/05/27 11:02:17;;;;;;;1.98;1.42;;;16.80;65.70;;;;;;5062959;28;20048;-68
2023/05/27 11:04:43;;;;;;;0.00;0.00;;;16.90;66.70;;;;;;5056721;28;20055;-68
2023/05/27 11:07:09;;;;;;;0.00;0.00;;;17.00;66.50;;;;;;5068618;28;20044;-68
2023/05/27 11:09:48;;;;;;;0.00;0.00;;;17.00;65.50;;;;;;5050544;28;20051;-68
2023/05/27 11:12:18;;;;;;;0.00;0.00;;;17.10;66.60;;;;;;5069478;28;20052;-68
2023/05/27 11:14:51;;;;;;;0.00;0.00;;;17.10;66.40;;;;;;5068127;28;20447;-68
2023/05/27 11:17:18;;;;;;;0.00;0.00;;;17.20;65.00;;;;;;5061482;28;20045;-69
2023/05/27 11:19:45;;;;;;;0.35;0.35;;;17.30;65.50;;;;;;5065458;28;20091;-68
2023/05/27 11:22:12;;;;;;;0.00;0.00;;;17.40;66.30;;;;;;5053118;28;20560;-68
2023/05/27 11:24:37;;;;;;;0.08;0.08;;;17.50;65.90;;;;;;5061623;28;20141;-68
2023/05/27 11:27:14;;;;;;;0.00;0.00;;;17.70;65.00;;;;;;5056550;28;20123;-68
2023/05/27 11:29:49;;;;;;;0.00;0.00;;;17.80;65.40;;;;;;5052372;28;20057;-68
2023/05/27 11:32:16;;;;;;;0.05;0.05;;;18.00;65.50;;;;;;5055541;28;20093;-68
2023/05/27 11:34:44;;;;;;;0.13;0.13;;;18.00;64.60;;;;;;5068017;28;20053;-69
2023/05/27 11:37:11;;;;;;;0.00;0.00;;;18.10;64.40;;;;;;5060868;28;20045;-68
2023/05/27 11:39:36;;;;;;;0.00;0.00;;;18.10;64.20;;;;;;5060089;28;20053;-68
2023/05/27 11:42:06;;;;;;;0.00;0.00;;;18.00;61.20;;;;;;5054602;28;20051;-68
2023/05/27 11:44:32;;;;;;;0.00;0.00;;;18.10;63.20;;;;;;5061886;28;20532;-68
2023/05/27 11:47:01;;;;;;;0.00;0.00;;;18.20;62.20;;;;;;5054929;28;20068;-69
2023/05/27 11:49:28;;;;;;;0.00;0.00;;;18.20;62.80;;;;;;5065630;28;20118;-68
2023/05/27 11:51:58;;;;;;;0.00;0.00;;;18.40;62.60;;;;;;5068605;28;20064;-68
2023/05/27 11:54:33;;;;;;;0.57;0.57;;;18.50;62.30;;;;;;5052125;28;20052;-68
2023/05/27 11:56:58;;;;;;;0.00;0.00;;;18.50;61.80;;;;;;5055215;28;20750;-68
2023/05/27 11:59:25;;;;;;;0.00;0.00;;;18.60;63.10;;;;;;5049812;28;20132;-68
2023/05/27 12:01:54;;;;;;;0.38;0.38;;;18.60;63.00;;;;;;5068098;28;20079;-68
2023/05/27 12:04:20;;;;;;;0.00;0.00;;;18.70;61.60;;;;;;5068256;28;20041;-68
2023/05/27 12:06:46;;;;;;;0.10;0.10;;;18.80;61.40;;;;;;5053483;28;20033;-68
2023/05/27 12:09:12;;;;;;;0.00;0.00;;;18.80;61.30;;;;;;5033406;28;20067;-67
2023/05/27 12:11:38;;;;;;;0.00;0.00;;;18.80;60.70;;;;;;5051063;28;20485;-67
2023/05/27 12:14:04;;;;;;;0.00;0.00;;;19.00;61.30;;;;;;5058968;28;20045;-67
2023/05/27 12:16:30;;;;;;;0.00;0.00;;;19.10;61.10;;;;;;5057356;28;20132;-67
2023/05/27 12:18:57;;;;;;;0.00;0.00;;;19.20;60.40;;;;;;5053416;28;20566;-67
2023/05/27 12:21:23;;;;;;;0.00;0.00;;;19.10;58.80;;;;;;5064851;28;20060;-66
2023/05/27 12:23:49;;;;;;;0.03;0.03;;;19.20;61.00;;;;;;5057769;28;20040;-66
2023/05/27 12:26:15;;;;;;;0.75;0.52;;;19.20;60.70;;;;;;5056974;28;20047;-65
2023/05/27 12:28:42;;;;;;;0.13;0.13;;;19.30;60.80;;;;;;5052636;28;20076;-66
2023/05/27 12:31:07;;;;;;;0.17;0.17;;;19.40;60.50;;;;;;5052511;28;20052;-65
2023/05/27 12:33:33;;;;;;;0.00;0.00;;;19.40;61.40;;;;;;5052145;28;20059;-65
2023/05/27 12:36:00;;;;;;;0.00;0.00;;;19.50;61.50;;;;;;5051400;28;20106;-66
2023/05/27 12:38:26;;;;;;;0.90;0.45;;;19.60;61.20;;;;;;5052382;28;20129;-65
2023/05/27 12:40:52;;;;;;;0.00;0.00;;;19.70;59.20;;;;;;5052281;28;20134;-66
2023/05/27 12:43:18;;;;;;;0.00;0.00;;;19.70;59.90;;;;;;5052553;28;20568;-66
2023/05/27 12:45:45;;;;;;;0.30;0.30;;;19.80;60.30;;;;;;5052378;28;20395;-65
2023/05/27 12:48:11;;;;;;;0.00;0.00;;;19.90;59.70;;;;;;5051660;28;20077;-66
2023/05/27 12:50:36;;;;;;;0.00;0.00;;;20.00;59.60;;;;;;5052121;28;20060;-66